createdAt,value
2022-08-28T00:02:03.321Z,19.90
2022-08-28T00:04:30.744Z,19.80
2022-08-28T00:06:58.753Z,19.90
2022-08-28T00:09:27.796Z,19.70
2022-08-28T00:11:55.464Z,19.70
2022-08-28T00:14:24.017Z,19.70
2022-08-28T00:16:51.703Z,19.70
2022-08-28T00:19:19.471Z,19.60
2022-08-28T00:21:47.010Z,19.60
2022-08-28T00:24:13.994Z,19.60
2022-08-28T00:26:59.467Z,19.60
2022-08-28T00:29:26.327Z,19.70
2022-08-28T00:31:53.396Z,19.60
2022-08-28T00:34:20.256Z,19.60
2022-08-28T00:37:00.254Z,19.60
2022-08-28T00:39:29.383Z,19.60
2022-08-28T00:41:58.024Z,19.60
2022-08-28T00:44:27.540Z,19.70
2022-08-28T00:46:58.465Z,19.60
2022-08-28T00:49:32.559Z,19.60
2022-08-28T00:52:16.039Z,19.70
2022-08-28T00:54:58.674Z,19.70
2022-08-28T00:57:37.236Z,19.70
2022-08-28T01:00:11.197Z,19.60
2022-08-28T01:02:38.639Z,19.50
2022-08-28T01:05:09.530Z,19.60
2022-08-28T01:07:38.584Z,19.60
2022-08-28T01:10:11.209Z,19.50
2022-08-28T01:12:38.647Z,19.50
2022-08-28T01:15:14.126Z,19.60
2022-08-28T01:17:56.825Z,19.60
2022-08-28T01:20:27.924Z,19.60
2022-08-28T01:23:24.429Z,19.50
2022-08-28T01:25:52.569Z,19.40
2022-08-28T01:28:20.807Z,19.20
2022-08-28T01:30:49.477Z,19.30
2022-08-28T01:33:16.750Z,19.30
2022-08-28T01:35:47.892Z,19.30
2022-08-28T01:38:20.067Z,19.30
2022-08-28T01:40:49.626Z,19.40
2022-08-28T01:43:20.290Z,19.50
2022-08-28T01:45:54.361Z,19.50
2022-08-28T01:48:25.574Z,19.30
2022-08-28T01:50:53.767Z,19.30
2022-08-28T01:53:24.989Z,19.30
2022-08-28T01:55:54.325Z,19.20
2022-08-28T01:58:22.913Z,19.30
2022-08-28T02:00:53.836Z,19.20
2022-08-28T02:03:23.430Z,19.20
2022-08-28T02:05:51.813Z,19.20
2022-08-28T02:08:18.850Z,19.20
2022-08-28T02:10:46.765Z,19.10
2022-08-28T02:13:13.761Z,19.10
2022-08-28T02:15:42.228Z,19.20
2022-08-28T02:18:11.056Z,19.20
2022-08-28T02:20:38.222Z,19.20
2022-08-28T02:23:06.519Z,19.20
2022-08-28T02:25:33.411Z,19.10
2022-08-28T02:28:00.251Z,19.10
2022-08-28T02:30:27.755Z,19.00
2022-08-28T02:32:54.869Z,19.00
2022-08-28T02:35:23.017Z,19.10
2022-08-28T02:37:52.074Z,19.10
2022-08-28T02:40:23.927Z,19.00
2022-08-28T02:42:52.404Z,19.00
2022-08-28T02:45:20.037Z,18.90
2022-08-28T02:47:47.450Z,19.00
2022-08-28T02:50:19.753Z,18.90
2022-08-28T02:52:47.351Z,18.80
2022-08-28T02:55:17.322Z,18.80
2022-08-28T02:57:44.795Z,18.70
2022-08-28T03:00:16.424Z,18.80
2022-08-28T03:02:45.640Z,18.70
2022-08-28T03:05:15.861Z,18.60
2022-08-28T03:07:42.871Z,18.70
2022-08-28T03:10:11.224Z,18.70
2022-08-28T03:12:39.038Z,18.70
2022-08-28T03:15:07.738Z,18.70
2022-08-28T03:17:36.930Z,18.60
2022-08-28T03:20:10.714Z,18.50
2022-08-28T03:22:56.532Z,18.60
2022-08-28T03:25:24.803Z,18.50
2022-08-28T03:27:52.544Z,18.40
2022-08-28T03:30:21.526Z,18.50
2022-08-28T03:32:49.021Z,18.40
2022-08-28T03:35:17.633Z,18.50
2022-08-28T03:37:44.621Z,18.50
2022-08-28T03:40:13.579Z,18.40
2022-08-28T03:42:41.037Z,18.50
2022-08-28T03:45:10.442Z,18.40
2022-08-28T03:47:38.976Z,18.30
2022-08-28T03:50:12.776Z,18.30
2022-08-28T03:52:41.531Z,18.30
2022-08-28T03:55:10.653Z,18.20
2022-08-28T03:57:38.116Z,18.20
2022-08-28T04:00:10.673Z,18.30
2022-08-28T04:02:43.823Z,18.20
2022-08-28T04:05:11.801Z,18.20
2022-08-28T04:07:40.133Z,18.10
2022-08-28T04:10:07.820Z,18.10
2022-08-28T04:12:36.953Z,18.10
2022-08-28T04:15:06.854Z,18.10
2022-08-28T04:17:34.369Z,18.00
2022-08-28T04:20:01.202Z,18.10
2022-08-28T04:22:30.044Z,18.00
2022-08-28T04:24:57.939Z,18.00
2022-08-28T04:27:24.805Z,18.00
2022-08-28T04:29:51.714Z,18.00
2022-08-28T04:32:18.643Z,18.00
2022-08-28T04:34:46.526Z,18.00
2022-08-28T04:37:15.855Z,18.00
2022-08-28T04:39:42.990Z,18.00
2022-08-28T04:42:10.089Z,18.10
2022-08-28T04:44:36.950Z,18.00
2022-08-28T04:47:03.970Z,18.00
2022-08-28T04:49:35.174Z,18.00
2022-08-28T04:52:02.231Z,17.90
2022-08-28T04:54:29.156Z,17.80
2022-08-28T04:56:56.155Z,17.80
2022-08-28T04:59:23.998Z,17.80
2022-08-28T05:01:52.078Z,17.90
2022-08-28T05:04:19.784Z,17.80
2022-08-28T05:06:47.333Z,17.70
2022-08-28T05:09:18.292Z,17.70
2022-08-28T05:11:46.625Z,17.70
2022-08-28T05:14:16.204Z,17.70
2022-08-28T05:16:49.772Z,17.70
2022-08-28T05:19:18.660Z,17.70
2022-08-28T05:21:47.336Z,17.60
2022-08-28T05:24:14.309Z,17.70
2022-08-28T05:26:41.927Z,17.60
2022-08-28T05:29:09.996Z,17.70
2022-08-28T05:31:39.289Z,17.70
2022-08-28T05:34:07.386Z,17.90
2022-08-28T05:36:37.156Z,17.80
2022-08-28T05:39:08.909Z,17.70
2022-08-28T05:41:39.549Z,17.80
2022-08-28T05:44:11.894Z,17.70
2022-08-28T05:46:41.505Z,17.80
2022-08-28T05:49:10.217Z,17.80
2022-08-28T05:51:40.830Z,17.80
2022-08-28T05:54:08.918Z,17.80
2022-08-28T05:56:38.576Z,17.80
2022-08-28T05:59:08.024Z,17.70
2022-08-28T06:01:45.942Z,17.80
2022-08-28T06:04:18.368Z,17.80
2022-08-28T06:06:45.438Z,17.60
2022-08-28T06:09:15.518Z,17.60
2022-08-28T06:11:44.645Z,17.50
2022-08-28T06:14:16.551Z,17.60
2022-08-28T06:16:52.722Z,17.60
2022-08-28T06:19:23.344Z,17.70
2022-08-28T06:21:55.770Z,17.70
2022-08-28T06:24:24.743Z,17.70
2022-08-28T06:26:52.608Z,17.70
2022-08-28T06:29:24.893Z,17.80
2022-08-28T06:31:58.132Z,17.70
2022-08-28T06:34:27.273Z,17.70
2022-08-28T06:36:55.098Z,17.80
2022-08-28T06:39:22.955Z,17.70
2022-08-28T06:41:51.205Z,17.70
2022-08-28T06:44:20.718Z,17.80
2022-08-28T06:46:49.598Z,17.90
2022-08-28T06:49:17.472Z,17.90
2022-08-28T06:51:44.469Z,17.90
2022-08-28T06:54:11.635Z,17.80
2022-08-28T06:56:39.999Z,17.70
2022-08-28T06:59:07.024Z,17.70
2022-08-28T07:01:36.644Z,17.60
2022-08-28T07:04:09.623Z,17.60
2022-08-28T07:06:39.534Z,17.60
2022-08-28T07:09:11.082Z,17.60
2022-08-28T07:11:39.558Z,17.70
2022-08-28T07:14:07.971Z,17.80
2022-08-28T07:16:38.589Z,17.90
2022-08-28T07:19:11.265Z,17.80
2022-08-28T07:21:39.461Z,17.80
2022-08-28T07:24:08.392Z,17.80
2022-08-28T07:26:37.244Z,17.80
2022-08-28T07:29:10.288Z,17.90
2022-08-28T07:31:41.648Z,18.00
2022-08-28T07:34:10.391Z,18.10
2022-08-28T07:36:37.640Z,18.00
2022-08-28T07:39:05.321Z,18.10
2022-08-28T07:41:35.566Z,18.10
2022-08-28T07:44:21.417Z,18.10
2022-08-28T07:46:48.414Z,18.10
2022-08-28T07:49:17.272Z,18.20
2022-08-28T07:51:46.661Z,18.30
2022-08-28T07:54:17.690Z,18.40
2022-08-28T07:56:46.572Z,18.40
2022-08-28T07:59:19.157Z,18.40
2022-08-28T08:01:50.889Z,18.40
2022-08-28T08:04:20.052Z,18.50
2022-08-28T08:06:55.624Z,18.60
2022-08-28T08:09:26.449Z,18.80
2022-08-28T08:11:55.093Z,18.80
2022-08-28T08:14:22.741Z,18.80
2022-08-28T08:16:49.910Z,18.80
2022-08-28T08:19:17.258Z,19.00
2022-08-28T08:21:48.362Z,19.10
2022-08-28T08:24:22.215Z,19.30
2022-08-28T08:26:58.877Z,19.20
2022-08-28T08:29:29.831Z,19.30
2022-08-28T08:32:02.789Z,19.50
2022-08-28T08:34:29.683Z,19.50
2022-08-28T08:36:57.666Z,19.60
2022-08-28T08:39:24.584Z,19.60
2022-08-28T08:41:56.848Z,19.60
2022-08-28T08:44:36.812Z,19.60
2022-08-28T08:47:36.944Z,19.70
2022-08-28T08:50:10.857Z,20.00
2022-08-28T08:53:04.738Z,20.10
2022-08-28T08:55:35.701Z,20.10
2022-08-28T08:58:04.634Z,20.30
2022-08-28T09:00:37.303Z,20.30
2022-08-28T09:03:18.716Z,20.40
2022-08-28T09:05:55.228Z,20.40
2022-08-28T09:08:47.801Z,20.40
2022-08-28T09:11:54.568Z,20.50
2022-08-28T09:14:52.109Z,20.40
2022-08-28T09:17:24.369Z,20.50
2022-08-28T09:19:52.306Z,20.30
2022-08-28T09:22:19.233Z,20.50
2022-08-28T09:24:46.211Z,20.50
2022-08-28T09:27:29.803Z,20.50
2022-08-28T09:30:02.601Z,20.70
2022-08-28T09:32:44.518Z,20.60
2022-08-28T09:35:16.516Z,20.50
2022-08-28T09:37:44.528Z,20.50
2022-08-28T09:40:17.602Z,20.50
2022-08-28T09:43:25.626Z,20.60
2022-08-28T09:46:04.939Z,20.70
2022-08-28T09:48:41.386Z,20.60
2022-08-28T09:51:10.894Z,20.70
2022-08-28T09:53:50.938Z,20.80
2022-08-28T09:56:29.877Z,20.80
2022-08-28T09:59:01.376Z,20.90
2022-08-28T10:01:37.406Z,20.90
2022-08-28T10:04:25.789Z,21.00
2022-08-28T10:07:03.765Z,21.10
2022-08-28T10:09:46.919Z,21.00
2022-08-28T10:12:32.943Z,21.10
2022-08-28T10:15:43.104Z,21.20
2022-08-28T10:18:19.168Z,21.20
2022-08-28T10:21:04.164Z,21.30
2022-08-28T10:23:43.120Z,21.40
2022-08-28T10:26:21.775Z,21.50
2022-08-28T10:29:10.023Z,21.50
2022-08-28T10:32:16.625Z,21.60
2022-08-28T10:35:05.295Z,21.70
2022-08-28T10:38:01.906Z,21.50
2022-08-28T10:40:38.833Z,21.50
2022-08-28T10:43:22.777Z,21.60
2022-08-28T10:45:54.964Z,21.70
2022-08-28T10:48:29.705Z,21.90
2022-08-28T10:51:01.674Z,22.00
2022-08-28T10:53:38.817Z,22.00
2022-08-28T10:56:16.190Z,22.20
2022-08-28T10:58:45.406Z,22.30
2022-08-28T11:01:30.806Z,22.30
2022-08-28T11:04:01.035Z,22.40
2022-08-28T11:06:37.193Z,22.60
2022-08-28T11:09:25.823Z,22.80
2022-08-28T11:12:07.005Z,22.90
2022-08-28T11:14:47.678Z,23.30
2022-08-28T11:17:27.965Z,23.40
2022-08-28T11:20:25.791Z,23.90
2022-08-28T11:23:15.676Z,24.00
2022-08-28T11:25:54.732Z,24.30
2022-08-28T11:28:24.727Z,24.60
2022-08-28T11:31:03.859Z,25.10
2022-08-28T11:33:41.229Z,25.40
2022-08-28T11:36:20.401Z,25.80
2022-08-28T11:38:57.056Z,25.90
2022-08-28T11:41:37.153Z,26.30
2022-08-28T11:44:13.185Z,26.60
2022-08-28T11:46:49.157Z,26.80
2022-08-28T11:49:43.916Z,26.80
2022-08-28T11:52:23.059Z,26.70
2022-08-28T11:55:08.145Z,26.90
2022-08-28T12:01:07.244Z,27.80
2022-08-28T12:03:43.175Z,27.60
2022-08-28T12:06:13.341Z,27.60
2022-08-28T12:08:53.172Z,27.60
2022-08-28T12:11:41.169Z,28.10
2022-08-28T12:14:11.888Z,28.30
2022-08-28T12:17:00.829Z,28.40
2022-08-28T12:19:49.984Z,28.50
2022-08-28T12:22:52.832Z,28.30
2022-08-28T12:25:33.819Z,28.40
2022-08-28T12:28:22.877Z,28.40
2022-08-28T12:31:06.970Z,28.90
2022-08-28T12:33:54.996Z,29.20
2022-08-28T12:36:28.753Z,29.00
2022-08-28T12:39:01.082Z,29.00
2022-08-28T12:41:30.129Z,29.10
2022-08-28T12:43:59.821Z,28.70
2022-08-28T12:46:37.424Z,28.40
2022-08-28T12:49:30.667Z,28.30
2022-08-28T12:52:16.600Z,28.60
2022-08-28T12:54:46.102Z,28.40
2022-08-28T12:57:23.997Z,28.30
2022-08-28T12:59:55.483Z,28.30
2022-08-28T13:02:34.069Z,28.30
2022-08-28T13:05:04.620Z,28.50
2022-08-28T13:07:39.360Z,28.80
2022-08-28T13:10:25.455Z,28.90
2022-08-28T13:13:00.877Z,28.60
2022-08-28T13:15:45.121Z,28.60
2022-08-28T13:18:37.768Z,28.50
2022-08-28T13:21:33.884Z,28.50
2022-08-28T13:24:24.023Z,28.20
2022-08-28T13:27:00.705Z,28.30
2022-08-28T13:29:28.002Z,28.50
2022-08-28T13:32:15.139Z,28.80
2022-08-28T13:34:48.057Z,28.80
2022-08-28T13:37:52.052Z,28.90
2022-08-28T13:43:22.735Z,29.50
2022-08-28T13:45:50.820Z,29.40
2022-08-28T13:48:27.537Z,29.50
2022-08-28T13:51:10.355Z,29.70
2022-08-28T13:53:45.799Z,29.90
2022-08-28T13:56:12.686Z,30.10
2022-08-28T13:58:40.673Z,30.30
2022-08-28T14:01:10.485Z,30.50
2022-08-28T14:03:38.502Z,30.40
2022-08-28T14:06:16.778Z,30.20
2022-08-28T14:08:46.311Z,29.90
2022-08-28T14:11:15.233Z,29.50
2022-08-28T14:13:46.957Z,29.20
2022-08-28T14:16:24.318Z,29.00
2022-08-28T14:18:52.721Z,29.00
2022-08-28T14:21:19.916Z,28.50
2022-08-28T14:23:46.882Z,28.20
2022-08-28T14:26:13.992Z,27.70
2022-08-28T14:28:40.840Z,27.40
2022-08-28T14:31:12.289Z,27.10
2022-08-28T14:33:41.789Z,26.80
2022-08-28T14:36:21.129Z,26.00
2022-08-28T14:38:53.703Z,25.90
2022-08-28T14:41:23.042Z,25.90
2022-08-28T14:43:50.188Z,25.70
2022-08-28T14:46:19.655Z,25.60
2022-08-28T14:48:48.005Z,25.40
2022-08-28T14:51:18.968Z,25.30
2022-08-28T14:53:46.936Z,25.40
2022-08-28T14:56:15.457Z,25.30
2022-08-28T14:58:42.861Z,25.40
2022-08-28T15:01:09.870Z,25.40
2022-08-28T15:03:37.745Z,25.30
2022-08-28T15:06:08.057Z,25.40
2022-08-28T15:08:36.739Z,25.40
2022-08-28T15:11:08.774Z,25.40
2022-08-28T15:13:36.017Z,25.30
2022-08-28T15:16:15.444Z,25.40
2022-08-28T15:18:45.974Z,25.30
2022-08-28T15:21:24.989Z,25.00
2022-08-28T15:23:54.588Z,24.90
2022-08-28T15:26:24.491Z,25.00
2022-08-28T15:28:55.831Z,24.90
2022-08-28T15:31:24.672Z,24.90
2022-08-28T15:33:52.514Z,24.80
2022-08-28T15:36:21.599Z,24.80
2022-08-28T15:39:07.133Z,24.80
2022-08-28T15:41:37.058Z,24.90
2022-08-28T15:44:05.181Z,24.90
2022-08-28T15:46:34.930Z,24.80
2022-08-28T15:49:03.847Z,24.70
2022-08-28T15:51:36.264Z,24.60
2022-08-28T15:54:03.575Z,24.60
2022-08-28T15:56:30.519Z,24.50
2022-08-28T15:58:57.516Z,24.40
2022-08-28T16:01:26.548Z,24.40
2022-08-28T16:03:53.581Z,24.40
2022-08-28T16:06:21.941Z,24.30
2022-08-28T16:08:50.376Z,24.30
2022-08-28T16:11:23.003Z,24.20
2022-08-28T16:13:51.263Z,24.30
2022-08-28T16:16:18.670Z,24.30
2022-08-28T16:18:45.711Z,24.30
2022-08-28T16:21:13.050Z,24.30
2022-08-28T16:23:41.303Z,24.30
2022-08-28T16:26:09.221Z,24.30
2022-08-28T16:28:38.264Z,24.30
2022-08-28T16:31:08.011Z,24.30
2022-08-28T16:33:46.586Z,24.30
2022-08-28T16:36:16.662Z,24.20
2022-08-28T16:38:48.493Z,24.20
2022-08-28T16:41:22.574Z,24.20
2022-08-28T16:43:50.582Z,24.20
2022-08-28T16:46:24.204Z,24.20
2022-08-28T16:48:52.184Z,24.20
2022-08-28T16:51:20.418Z,24.10
2022-08-28T16:53:49.523Z,24.10
2022-08-28T16:56:17.840Z,24.00
2022-08-28T16:58:45.274Z,24.00
2022-08-28T17:01:13.600Z,23.90
2022-08-28T17:03:41.453Z,23.90
2022-08-28T17:06:19.318Z,24.00
2022-08-28T17:08:46.491Z,24.10
2022-08-28T17:11:13.877Z,23.90
2022-08-28T17:13:41.910Z,23.90
2022-08-28T17:16:10.070Z,23.80
2022-08-28T17:18:37.703Z,23.60
2022-08-28T17:21:24.121Z,23.50
2022-08-28T17:23:52.082Z,23.50
2022-08-28T17:26:19.314Z,23.50
2022-08-28T17:28:46.781Z,23.50
2022-08-28T17:31:14.417Z,23.50
2022-08-28T17:33:43.680Z,23.50
2022-08-28T17:36:21.277Z,23.50
2022-08-28T17:38:59.570Z,23.50
2022-08-28T17:41:27.399Z,23.60
2022-08-28T17:43:54.278Z,23.60
2022-08-28T17:46:21.237Z,23.50
2022-08-28T17:48:54.378Z,23.40
2022-08-28T17:51:41.999Z,23.30
2022-08-28T17:54:13.883Z,23.20
2022-08-28T17:56:41.337Z,23.20
2022-08-28T17:59:08.420Z,23.10
2022-08-28T18:01:36.727Z,23.00
2022-08-28T18:04:05.431Z,23.00
2022-08-28T18:06:33.975Z,23.00
2022-08-28T18:09:01.995Z,22.90
2022-08-28T18:11:29.132Z,22.80
2022-08-28T18:13:56.248Z,23.00
2022-08-28T18:16:26.505Z,22.90
2022-08-28T18:18:56.932Z,22.80
2022-08-28T18:21:24.270Z,22.80
2022-08-28T18:23:51.177Z,22.70
2022-08-28T18:26:18.418Z,22.60
2022-08-28T18:28:45.380Z,22.60
2022-08-28T18:31:12.446Z,22.70
2022-08-28T18:33:39.374Z,22.60
2022-08-28T18:36:12.515Z,22.60
2022-08-28T18:38:40.639Z,22.60
2022-08-28T18:41:09.074Z,22.50
2022-08-28T18:43:36.597Z,22.40
2022-08-28T18:46:05.228Z,22.40
2022-08-28T18:48:32.727Z,22.30
2022-08-28T18:50:59.609Z,22.20
2022-08-28T18:53:27.977Z,22.20
2022-08-28T18:55:56.153Z,22.30
2022-08-28T18:58:26.625Z,22.20
2022-08-28T19:00:55.020Z,22.10
2022-08-28T19:03:22.693Z,22.10
2022-08-28T19:05:51.039Z,22.00
2022-08-28T19:08:18.009Z,22.00
2022-08-28T19:10:45.189Z,22.10
2022-08-28T19:13:12.405Z,22.00
2022-08-28T19:15:39.955Z,22.00
2022-08-28T19:18:07.289Z,21.80
2022-08-28T19:20:34.810Z,21.80
2022-08-28T19:23:01.808Z,21.80
2022-08-28T19:25:30.573Z,21.70
2022-08-28T19:28:01.830Z,21.60
2022-08-28T19:30:35.284Z,21.60
2022-08-28T19:33:05.562Z,21.50
2022-08-28T19:35:33.778Z,21.50
2022-08-28T19:38:01.225Z,21.40
2022-08-28T19:40:28.967Z,21.50
2022-08-28T19:42:57.499Z,21.50
2022-08-28T19:45:24.537Z,21.40
2022-08-28T19:47:52.689Z,21.30
2022-08-28T19:50:22.244Z,21.30
2022-08-28T19:52:49.257Z,21.20
2022-08-28T19:55:21.067Z,21.00
2022-08-28T19:57:49.516Z,21.10
2022-08-28T20:00:19.968Z,21.10
2022-08-28T20:02:48.662Z,21.10
2022-08-28T20:05:15.676Z,21.00
2022-08-28T20:07:42.823Z,21.00
2022-08-28T20:10:10.345Z,20.90
2022-08-28T20:12:38.597Z,20.80
2022-08-28T20:15:10.309Z,20.80
2022-08-28T20:17:44.161Z,20.80
2022-08-28T20:20:18.712Z,20.80
2022-08-28T20:22:45.864Z,20.80
2022-08-28T20:25:12.758Z,20.70
2022-08-28T20:27:41.911Z,20.70
2022-08-28T20:30:11.067Z,20.60
2022-08-28T20:32:40.724Z,20.60
2022-08-28T20:35:10.143Z,20.60
2022-08-28T20:37:44.703Z,20.50
2022-08-28T20:40:14.684Z,20.50
2022-08-28T20:42:41.588Z,20.40
2022-08-28T20:45:10.329Z,20.40
2022-08-28T20:47:39.247Z,20.30
2022-08-28T20:50:08.607Z,20.30
2022-08-28T20:52:37.914Z,20.30
2022-08-28T20:55:08.055Z,20.20
2022-08-28T20:57:35.520Z,20.20
2022-08-28T21:00:05.802Z,20.10
2022-08-28T21:02:33.177Z,20.10
2022-08-28T21:05:00.719Z,20.00
2022-08-28T21:07:27.917Z,20.00
2022-08-28T21:10:06.997Z,20.00
2022-08-28T21:12:39.389Z,19.90
2022-08-28T21:15:10.943Z,19.80
2022-08-28T21:17:38.294Z,19.80
2022-08-28T21:20:10.280Z,19.80
2022-08-28T21:22:38.231Z,19.80
2022-08-28T21:25:07.347Z,19.80
2022-08-28T21:27:34.594Z,19.70
2022-08-28T21:30:02.287Z,19.70
2022-08-28T21:32:32.641Z,19.70
2022-08-28T21:35:02.248Z,19.70
2022-08-28T21:37:31.551Z,19.60
2022-08-28T21:39:59.489Z,19.50
2022-08-28T21:42:28.417Z,19.50
2022-08-28T21:44:56.302Z,19.50
2022-08-28T21:47:24.316Z,19.40
2022-08-28T21:49:54.174Z,19.40
2022-08-28T21:52:24.080Z,19.40
2022-08-28T21:54:55.872Z,19.30
2022-08-28T21:57:22.719Z,19.30
2022-08-28T21:59:49.601Z,19.20
2022-08-28T22:02:17.607Z,19.20
2022-08-28T22:04:44.509Z,19.10
2022-08-28T22:07:12.097Z,19.20
2022-08-28T22:09:39.926Z,19.20
2022-08-28T22:12:08.994Z,19.20
2022-08-28T22:14:38.671Z,19.10
2022-08-28T22:17:10.772Z,19.10
2022-08-28T22:19:40.095Z,19.10
2022-08-28T22:22:28.005Z,19.10
2022-08-28T22:24:55.167Z,19.10
2022-08-28T22:27:22.414Z,19.00
2022-08-28T22:29:49.326Z,18.90
2022-08-28T22:32:17.448Z,18.90
2022-08-28T22:34:46.128Z,18.90
2022-08-28T22:37:13.774Z,18.80
2022-08-28T22:39:42.641Z,18.90
2022-08-28T22:42:10.311Z,18.90
2022-08-28T22:44:37.647Z,18.70
2022-08-28T22:47:05.230Z,18.70
2022-08-28T22:49:32.131Z,18.70
2022-08-28T22:51:59.967Z,18.70
2022-08-28T22:54:26.931Z,18.70
2022-08-28T22:56:53.761Z,18.70
2022-08-28T22:59:21.311Z,18.70
2022-08-28T23:01:48.475Z,18.70
2022-08-28T23:04:16.035Z,18.70
2022-08-28T23:06:42.931Z,18.60
2022-08-28T23:09:11.994Z,18.60
2022-08-28T23:11:38.900Z,18.50
2022-08-28T23:14:06.774Z,18.50
2022-08-28T23:16:35.199Z,18.50
2022-08-28T23:19:08.881Z,18.50
2022-08-28T23:21:39.208Z,18.50
2022-08-28T23:24:10.555Z,18.40
2022-08-28T23:26:37.392Z,18.30
2022-08-28T23:29:05.363Z,18.20
2022-08-28T23:31:33.253Z,18.30
2022-08-28T23:34:00.340Z,18.30
2022-08-28T23:36:28.230Z,18.30
2022-08-28T23:38:55.298Z,18.30
2022-08-28T23:41:22.149Z,18.20
2022-08-28T23:43:49.246Z,18.20
2022-08-28T23:46:18.201Z,18.10
2022-08-28T23:48:49.570Z,18.20
2022-08-28T23:51:17.200Z,18.10
2022-08-28T23:53:44.537Z,18.00
2022-08-28T23:56:12.831Z,18.00
2022-08-28T23:58:44.666Z,18.10
